createdAt,value
2023-01-28T02:15:19.841Z,100239.41
2023-01-28T02:17:49.564Z,100234.61
2023-01-28T02:20:23.269Z,100232.95
2023-01-28T02:23:28.413Z,100234.73
2023-01-28T02:26:01.865Z,100234.73
2023-01-28T02:28:39.329Z,100230.42
2023-01-28T02:31:12.227Z,100225.80
2023-01-28T02:33:49.670Z,100223.56
2023-01-28T02:36:28.588Z,100223.73
2023-01-28T02:38:58.765Z,100219.51
2023-01-28T02:41:30.488Z,100224.19
2023-01-28T02:44:02.628Z,100226.73
2023-01-28T02:46:49.312Z,100224.67
2023-01-28T02:49:45.175Z,100225.05
2023-01-28T02:52:46.490Z,100229.69
2023-01-28T02:55:41.495Z,100225.81
2023-01-28T02:58:37.700Z,100225.80
2023-01-28T03:01:23.569Z,100223.58
2023-01-28T03:03:59.767Z,100223.45
2023-01-28T03:06:34.547Z,100222.29
2023-01-28T03:09:24.363Z,100222.77
2023-01-28T03:12:38.439Z,100221.73
2023-01-28T03:15:29.169Z,100212.91
2023-01-28T03:18:26.125Z,100207.70
2023-01-28T03:21:23.266Z,100211.45
2023-01-28T03:24:16.437Z,100214.04
2023-01-28T03:27:12.479Z,100212.80
2023-01-28T03:30:00.420Z,100213.87
2023-01-28T03:32:47.733Z,100213.70
2023-01-28T03:35:34.501Z,100213.35
2023-01-28T03:38:18.718Z,100213.55
2023-01-28T03:40:55.390Z,100211.18
2023-01-28T03:43:24.122Z,100211.74
2023-01-28T03:45:52.621Z,100213.83
2023-01-28T03:48:22.213Z,100219.04
2023-01-28T03:51:00.466Z,100221.16
2023-01-28T03:53:29.635Z,100218.49
2023-01-28T03:55:58.917Z,100220.63
2023-01-28T03:58:48.683Z,100222.55
2023-01-28T04:01:17.050Z,100218.67
2023-01-28T04:03:45.100Z,100221.96
2023-01-28T04:06:19.283Z,100223.63
2023-01-28T04:09:16.657Z,100223.67
2023-01-28T04:11:54.694Z,100221.38
2023-01-28T04:14:30.018Z,100218.52
2023-01-28T04:17:24.903Z,100220.91
2023-01-28T04:19:53.370Z,100225.45
2023-01-28T04:22:22.222Z,100231.31
2023-01-28T04:24:52.476Z,100228.04
2023-01-28T04:27:20.722Z,100229.27
2023-01-28T04:29:50.573Z,100231.02
2023-01-28T04:32:40.517Z,100234.38
2023-01-28T04:35:32.086Z,100228.02
2023-01-28T04:38:13.009Z,100229.58
2023-01-28T04:41:02.393Z,100225.80
2023-01-28T04:43:34.241Z,100231.80
2023-01-28T04:46:32.411Z,100233.92
2023-01-28T04:49:07.751Z,100238.23
2023-01-28T04:51:53.486Z,100241.06
2023-01-28T04:54:45.024Z,100242.98
2023-01-28T04:57:13.067Z,100241.18
2023-01-28T04:59:41.190Z,100237.64
2023-01-28T05:02:09.383Z,100237.70
2023-01-28T05:04:37.554Z,100241.30
2023-01-28T05:07:05.934Z,100242.44
2023-01-28T05:09:37.376Z,100246.81
2023-01-28T05:12:06.099Z,100249.02
2023-01-28T05:14:34.573Z,100253.34
2023-01-28T05:17:07.825Z,100259.25
2023-01-28T05:19:37.980Z,100259.44
2023-01-28T05:22:11.686Z,100257.42
2023-01-28T05:24:44.015Z,100255.60
2023-01-28T05:27:12.184Z,100251.50
2023-01-28T05:29:40.269Z,100245.14
2023-01-28T05:32:09.641Z,100246.96
2023-01-28T05:34:37.808Z,100245.92
2023-01-28T05:37:11.602Z,100243.39
2023-01-28T05:39:40.282Z,100243.18
2023-01-28T05:42:09.528Z,100242.30
2023-01-28T05:44:42.508Z,100238.69
2023-01-28T05:47:25.213Z,100239.16
2023-01-28T05:50:01.015Z,100244.58
2023-01-28T05:52:45.687Z,100247.06
2023-01-28T05:55:23.361Z,100249.52
2023-01-28T05:57:52.075Z,100246.30
2023-01-28T06:00:23.191Z,100241.19
2023-01-28T06:02:52.578Z,100243.84
2023-01-28T06:05:21.607Z,100248.46
2023-01-28T06:07:49.747Z,100252.55
2023-01-28T06:10:18.227Z,100249.13
2023-01-28T06:12:48.979Z,100246.92
2023-01-28T06:15:40.194Z,100243.85
2023-01-28T06:18:21.868Z,100242.13
2023-01-28T06:20:50.920Z,100242.88
2023-01-28T06:23:19.465Z,100237.48
2023-01-28T06:25:47.478Z,100234.66
2023-01-28T06:28:17.770Z,100239.08
2023-01-28T06:30:49.435Z,100239.63
2023-01-28T06:33:21.432Z,100238.48
2023-01-28T06:35:49.849Z,100243.67
2023-01-28T06:38:18.766Z,100246.67
2023-01-28T06:40:55.788Z,100246.44
2023-01-28T06:43:28.245Z,100251.09
2023-01-28T06:45:57.091Z,100253.21
2023-01-28T06:48:25.233Z,100256.02
2023-01-28T06:50:57.114Z,100257.77
2023-01-28T06:53:25.501Z,100257.50
2023-01-28T06:55:53.800Z,100257.52
2023-01-28T06:58:22.367Z,100260.52
2023-01-28T07:00:50.686Z,100262.48
2023-01-28T07:03:18.887Z,100267.06
2023-01-28T07:05:47.047Z,100261.36
2023-01-28T07:08:15.168Z,100261.96
2023-01-28T07:10:44.074Z,100262.47
2023-01-28T07:13:12.283Z,100264.58
2023-01-28T07:15:41.890Z,100263.69
2023-01-28T07:18:09.907Z,100259.50
2023-01-28T07:20:37.878Z,100258.81
2023-01-28T07:23:06.065Z,100251.23
2023-01-28T07:25:34.808Z,100254.80
2023-01-28T07:28:02.824Z,100253.39
2023-01-28T07:30:31.634Z,100250.47
2023-01-28T07:32:59.952Z,100249.33
2023-01-28T07:35:28.055Z,100254.83
2023-01-28T07:37:57.650Z,100255.14
2023-01-28T07:40:26.443Z,100251.88
2023-01-28T12:10:03.316Z,100112.50
2023-01-28T12:12:41.807Z,100116.20
2023-01-28T12:15:39.925Z,100109.14
2023-01-28T12:18:12.243Z,100108.45
2023-01-28T12:20:40.175Z,100107.30
2023-01-28T12:23:12.514Z,100103.98
2023-01-28T12:25:47.961Z,100096.89
2023-01-28T12:28:25.855Z,100091.63
2023-01-28T12:31:18.187Z,100091.13
2023-01-28T12:33:56.624Z,100091.31
2023-01-28T12:36:43.590Z,100087.65
2023-01-28T12:39:20.434Z,100089.98
2023-01-28T12:41:51.270Z,100089.06
2023-01-28T12:44:23.765Z,100086.39
2023-01-28T12:46:54.015Z,100086.25
2023-01-28T12:49:40.596Z,100086.03
2023-01-28T12:52:19.223Z,100084.86
2023-01-28T12:55:21.250Z,100084.70
2023-01-28T12:57:57.143Z,100084.27
2023-01-28T13:00:39.520Z,100080.23
2023-01-28T13:03:26.571Z,100077.84
2023-01-28T13:06:02.916Z,100079.27
2023-01-28T13:08:31.117Z,100084.78
2023-01-28T13:11:00.484Z,100084.77
2023-01-28T13:13:31.071Z,100083.74
2023-01-28T13:15:59.908Z,100084.07
2023-01-28T13:18:39.529Z,100081.71
2023-01-28T13:21:25.203Z,100079.86
2023-01-28T13:24:02.486Z,100078.84
2023-01-28T13:26:38.452Z,100083.13
2023-01-28T13:29:15.699Z,100081.38
2023-01-28T13:31:45.238Z,100081.57
2023-01-28T13:34:51.422Z,100082.42
2023-01-28T13:37:32.159Z,100084.66
2023-01-28T13:40:09.317Z,100083.12
2023-01-28T13:42:37.395Z,100084.86
2023-01-28T13:45:18.109Z,100082.60
2023-01-28T13:47:48.093Z,100084.52
2023-01-28T13:50:23.553Z,100082.43
2023-01-28T13:53:25.650Z,100082.93
2023-01-28T13:55:54.302Z,100083.77
2023-01-28T13:58:30.994Z,100087.36
2023-01-28T14:01:27.170Z,100086.85
2023-01-28T14:04:22.761Z,100085.97
2023-01-28T14:07:12.249Z,100081.13
2023-01-28T14:09:49.159Z,100085.59
2023-01-28T14:12:39.378Z,100085.95
2023-01-28T14:15:23.129Z,100083.70
2023-01-28T14:17:52.502Z,100083.15
2023-01-28T14:20:27.578Z,100083.09
2023-01-28T14:23:00.019Z,100084.40
2023-01-28T14:25:49.862Z,100082.79
2023-01-28T14:28:21.459Z,100088.54
2023-01-28T14:30:57.853Z,100085.70
2023-01-28T14:33:25.814Z,100085.63
2023-01-28T14:35:53.737Z,100089.05
2023-01-28T14:38:21.788Z,100088.72
2023-01-28T14:40:52.730Z,100086.77
2023-01-28T14:43:22.503Z,100087.69
2023-01-28T14:45:53.282Z,100086.36
2023-01-28T14:48:43.417Z,100085.20
2023-01-28T14:51:18.887Z,100087.99
2023-01-28T14:54:09.221Z,100091.22
2023-01-28T14:57:08.626Z,100090.30
2023-01-28T14:59:50.104Z,100095.02
2023-01-28T15:02:20.263Z,100097.87
2023-01-28T15:04:49.835Z,100098.48
2023-01-28T15:07:25.521Z,100098.80
2023-01-28T15:10:07.734Z,100102.73
2023-01-28T15:12:38.025Z,100104.27
2023-01-28T15:15:11.687Z,100105.40
2023-01-28T15:17:39.910Z,100105.98
2023-01-28T15:20:09.055Z,100114.45
2023-01-28T15:22:37.012Z,100112.18
2023-01-28T15:25:07.453Z,100111.77
2023-01-28T15:27:35.852Z,100112.44
2023-01-28T15:30:27.822Z,100108.23
2023-01-28T15:33:12.854Z,100110.17
2023-01-28T15:35:48.194Z,100106.70
2023-01-28T15:38:17.941Z,100107.20
2023-01-28T15:40:55.207Z,100111.49
2023-01-28T15:43:25.795Z,100111.52
2023-01-28T15:45:57.050Z,100110.48
2023-01-28T15:48:26.585Z,100114.89
2023-01-28T15:51:02.604Z,100120.65
2023-01-28T19:58:45.786Z,100165.48
2023-01-28T20:01:14.861Z,100167.15
2023-01-28T20:03:43.918Z,100171.45
2023-01-28T20:06:13.703Z,100176.13
2023-01-28T20:08:42.180Z,100172.73
2023-01-28T20:11:14.972Z,100172.09
2023-01-28T20:13:44.316Z,100174.01
2023-01-28T20:16:17.833Z,100178.48
2023-01-28T20:18:53.571Z,100179.52
2023-01-28T20:21:21.654Z,100173.23
2023-01-28T20:23:51.515Z,100175.99
2023-01-28T20:26:24.020Z,100175.15
2023-01-28T20:28:52.076Z,100176.87
2023-01-28T20:31:20.718Z,100175.23
2023-01-28T20:33:49.221Z,100174.96
2023-01-28T20:36:17.303Z,100176.48
2023-01-28T20:38:46.792Z,100175.83
2023-01-28T20:41:16.766Z,100170.84
2023-01-28T20:43:45.013Z,100173.91
2023-01-28T20:46:21.340Z,100170.15
2023-01-28T20:48:49.688Z,100172.01
2023-01-28T20:51:19.214Z,100170.80
2023-01-28T20:53:48.048Z,100170.41
2023-01-28T20:56:19.486Z,100170.70
2023-01-28T20:58:49.411Z,100167.92
2023-01-28T21:01:28.344Z,100166.84
2023-01-28T21:03:56.266Z,100166.96
2023-01-28T21:06:26.678Z,100167.24
2023-01-28T21:08:54.711Z,100168.88
2023-01-28T21:11:23.290Z,100167.59
2023-01-28T21:13:51.529Z,100167.70
2023-01-28T21:16:19.758Z,100165.05
2023-01-28T21:18:48.708Z,100166.73
2023-01-28T21:21:18.006Z,100168.89
2023-01-28T21:23:46.006Z,100168.88
2023-01-28T21:26:15.628Z,100170.20
2023-01-28T21:28:44.231Z,100174.23
2023-01-28T21:31:17.052Z,100178.27
2023-01-28T21:33:52.015Z,100183.50
2023-01-28T21:36:20.038Z,100183.27
2023-01-28T21:38:55.350Z,100183.55
2023-01-28T21:41:24.672Z,100180.20
2023-01-28T21:43:53.876Z,100180.00
2023-01-28T21:46:27.000Z,100182.58
2023-01-28T21:49:01.259Z,100181.34
2023-01-28T21:51:36.114Z,100186.42
2023-01-28T21:54:05.016Z,100187.04
2023-01-28T21:56:33.549Z,100187.98
2023-01-28T21:59:20.369Z,100183.88
2023-01-28T22:01:48.361Z,100185.91
2023-01-28T22:04:20.989Z,100182.73
2023-01-28T22:06:49.428Z,100181.63
2023-01-28T22:09:17.456Z,100182.59
2023-01-28T22:11:46.644Z,100185.09
2023-01-28T22:14:15.133Z,100177.73
2023-01-28T22:16:43.427Z,100176.83
2023-01-28T22:19:11.631Z,100173.73
2023-01-28T22:21:43.713Z,100171.59
2023-01-28T22:24:16.254Z,100169.33
2023-01-28T22:26:45.482Z,100172.32
2023-01-28T22:29:14.272Z,100171.22
2023-01-28T22:31:42.423Z,100168.73
2023-01-28T22:34:10.486Z,100168.76
2023-01-28T22:36:38.362Z,100175.46
2023-01-28T22:39:07.521Z,100169.71
2023-01-28T22:41:35.560Z,100170.42
2023-01-28T22:44:04.494Z,100164.27
2023-01-28T22:46:33.500Z,100163.26
2023-01-28T22:49:02.525Z,100161.23
2023-01-28T22:51:32.081Z,100160.23
2023-01-28T22:54:00.382Z,100159.16
2023-01-28T22:56:29.453Z,100154.60
2023-01-28T22:58:59.283Z,100155.65
2023-01-28T23:01:27.783Z,100154.23
2023-01-28T23:03:56.294Z,100153.00
2023-01-28T23:06:28.077Z,100148.50
2023-01-28T23:08:56.571Z,100147.69
2023-01-28T23:11:28.316Z,100150.44
2023-01-28T23:14:16.903Z,100145.45
2023-01-28T23:17:03.617Z,100143.77
2023-01-28T23:19:50.731Z,100142.02
2023-01-28T23:22:42.666Z,100139.23
2023-01-28T23:25:10.902Z,100135.70
2023-01-28T23:27:38.815Z,100138.16
2023-01-28T23:30:10.374Z,100131.04
2023-01-28T23:32:44.009Z,100130.88
2023-01-28T23:35:12.845Z,100131.44
2023-01-28T23:37:41.642Z,100140.73
2023-01-28T23:40:10.870Z,100141.38
2023-01-28T23:42:38.958Z,100138.75
2023-01-28T23:45:07.648Z,100141.88
